sensor_id;sensor_type;location;lat;lon;timestamp;temperature;humidity
10447;DHT22;5271;44.422;26.092;2023-04-01T00:01:10;14.30;79.60
10447;DHT22;5271;44.422;26.092;2023-04-01T00:03:39;14.30;80.00
10447;DHT22;5271;44.422;26.092;2023-04-01T00:06:06;14.30;79.90
10447;DHT22;5271;44.422;26.092;2023-04-01T00:08:33;14.30;79.70
10447;DHT22;5271;44.422;26.092;2023-04-01T00:11:00;14.30;79.80
10447;DHT22;5271;44.422;26.092;2023-04-01T00:13:27;14.30;80.00
10447;DHT22;5271;44.422;26.092;2023-04-01T00:15:54;14.30;80.20
10447;DHT22;5271;44.422;26.092;2023-04-01T00:18:25;14.20;80.20
10447;DHT22;5271;44.422;26.092;2023-04-01T00:20:52;14.10;80.50
10447;DHT22;5271;44.422;26.092;2023-04-01T00:23:19;14.10;80.80
10447;DHT22;5271;44.422;26.092;2023-04-01T00:25:47;14.10;80.90
10447;DHT22;5271;44.422;26.092;2023-04-01T00:28:15;14.00;80.90
10447;DHT22;5271;44.422;26.092;2023-04-01T00:30:42;14.00;80.80
10447;DHT22;5271;44.422;26.092;2023-04-01T00:33:09;14.00;80.80
10447;DHT22;5271;44.422;26.092;2023-04-01T00:35:37;14.00;81.20
10447;DHT22;5271;44.422;26.092;2023-04-01T00:38:04;13.90;81.30
10447;DHT22;5271;44.422;26.092;2023-04-01T00:40:34;13.90;82.00
10447;DHT22;5271;44.422;26.092;2023-04-01T00:43:01;13.80;81.80
10447;DHT22;5271;44.422;26.092;2023-04-01T00:45:32;13.80;81.40
10447;DHT22;5271;44.422;26.092;2023-04-01T00:48:02;13.80;81.70
10447;DHT22;5271;44.422;26.092;2023-04-01T00:50:31;13.70;81.90
10447;DHT22;5271;44.422;26.092;2023-04-01T00:53:01;13.80;82.00
10447;DHT22;5271;44.422;26.092;2023-04-01T00:55:32;13.80;82.00
10447;DHT22;5271;44.422;26.092;2023-04-01T00:58:02;13.80;81.90
10447;DHT22;5271;44.422;26.092;2023-04-01T01:00:30;13.70;82.10
10447;DHT22;5271;44.422;26.092;2023-04-01T01:02:57;13.70;82.30
10447;DHT22;5271;44.422;26.092;2023-04-01T01:05:31;13.70;82.10
10447;DHT22;5271;44.422;26.092;2023-04-01T01:08:10;13.70;82.20
10447;DHT22;5271;44.422;26.092;2023-04-01T01:10:42;13.70;82.40
10447;DHT22;5271;44.422;26.092;2023-04-01T01:13:17;13.70;82.20
10447;DHT22;5271;44.422;26.092;2023-04-01T01:15:49;13.70;82.20
10447;DHT22;5271;44.422;26.092;2023-04-01T01:18:23;13.60;82.50
10447;DHT22;5271;44.422;26.092;2023-04-01T01:21:16;13.70;82.30
10447;DHT22;5271;44.422;26.092;2023-04-01T01:24:16;13.70;82.60
10447;DHT22;5271;44.422;26.092;2023-04-01T01:26:58;13.70;82.70
10447;DHT22;5271;44.422;26.092;2023-04-01T01:29:46;13.70;82.60
10447;DHT22;5271;44.422;26.092;2023-04-01T01:32:25;13.60;82.80
10447;DHT22;5271;44.422;26.092;2023-04-01T01:35:07;13.60;82.60
10447;DHT22;5271;44.422;26.092;2023-04-01T01:37:37;13.70;82.50
10447;DHT22;5271;44.422;26.092;2023-04-01T01:40:07;13.70;83.10
10447;DHT22;5271;44.422;26.092;2023-04-01T01:42:37;13.70;82.60
10447;DHT22;5271;44.422;26.092;2023-04-01T01:45:06;13.70;82.40
10447;DHT22;5271;44.422;26.092;2023-04-01T01:47:34;13.80;82.30
10447;DHT22;5271;44.422;26.092;2023-04-01T01:50:03;13.70;82.20
10447;DHT22;5271;44.422;26.092;2023-04-01T01:52:33;13.70;82.30
10447;DHT22;5271;44.422;26.092;2023-04-01T01:54:59;13.60;82.30
10447;DHT22;5271;44.422;26.092;2023-04-01T01:57:29;13.60;82.20
10447;DHT22;5271;44.422;26.092;2023-04-01T02:00:03;13.60;82.70
10447;DHT22;5271;44.422;26.092;2023-04-01T02:02:34;13.50;82.50
10447;DHT22;5271;44.422;26.092;2023-04-01T02:05:01;13.60;82.30
10447;DHT22;5271;44.422;26.092;2023-04-01T02:07:34;13.50;82.30
10447;DHT22;5271;44.422;26.092;2023-04-01T02:10:02;13.50;82.00
10447;DHT22;5271;44.422;26.092;2023-04-01T02:12:30;13.50;82.10
10447;DHT22;5271;44.422;26.092;2023-04-01T02:15:00;13.50;82.30
10447;DHT22;5271;44.422;26.092;2023-04-01T02:17:32;13.50;82.00
10447;DHT22;5271;44.422;26.092;2023-04-01T02:20:03;13.50;82.20
10447;DHT22;5271;44.422;26.092;2023-04-01T02:22:33;13.50;82.20
10447;DHT22;5271;44.422;26.092;2023-04-01T02:25:05;13.50;82.00
10447;DHT22;5271;44.422;26.092;2023-04-01T02:27:33;13.40;81.90
10447;DHT22;5271;44.422;26.092;2023-04-01T02:30:00;13.50;81.40
10447;DHT22;5271;44.422;26.092;2023-04-01T02:32:28;13.40;81.80
10447;DHT22;5271;44.422;26.092;2023-04-01T02:34:55;13.40;82.20
10447;DHT22;5271;44.422;26.092;2023-04-01T02:37:24;13.40;82.10
10447;DHT22;5271;44.422;26.092;2023-04-01T02:39:51;13.40;82.40
10447;DHT22;5271;44.422;26.092;2023-04-01T02:42:19;13.40;83.00
10447;DHT22;5271;44.422;26.092;2023-04-01T02:44:46;13.30;83.20
10447;DHT22;5271;44.422;26.092;2023-04-01T02:47:13;13.30;83.00
10447;DHT22;5271;44.422;26.092;2023-04-01T02:49:40;13.30;83.40
10447;DHT22;5271;44.422;26.092;2023-04-01T02:52:07;13.20;83.90
10447;DHT22;5271;44.422;26.092;2023-04-01T02:54:33;13.20;84.30
10447;DHT22;5271;44.422;26.092;2023-04-01T02:57:00;13.30;84.50
10447;DHT22;5271;44.422;26.092;2023-04-01T02:59:28;13.30;84.00
10447;DHT22;5271;44.422;26.092;2023-04-01T03:01:55;13.30;83.90
10447;DHT22;5271;44.422;26.092;2023-04-01T03:04:22;13.40;84.10
10447;DHT22;5271;44.422;26.092;2023-04-01T03:06:49;13.40;84.00
10447;DHT22;5271;44.422;26.092;2023-04-01T03:09:16;13.50;83.70
10447;DHT22;5271;44.422;26.092;2023-04-01T03:11:43;13.50;83.10
10447;DHT22;5271;44.422;26.092;2023-04-01T03:14:10;13.40;83.50
10447;DHT22;5271;44.422;26.092;2023-04-01T03:16:38;13.50;84.10
10447;DHT22;5271;44.422;26.092;2023-04-01T03:19:05;13.50;84.30
10447;DHT22;5271;44.422;26.092;2023-04-01T03:21:31;13.50;83.90
10447;DHT22;5271;44.422;26.092;2023-04-01T03:23:58;13.40;83.30
10447;DHT22;5271;44.422;26.092;2023-04-01T03:26:25;13.40;82.90
10447;DHT22;5271;44.422;26.092;2023-04-01T03:28:53;13.40;83.00
10447;DHT22;5271;44.422;26.092;2023-04-01T03:31:20;13.40;83.20
10447;DHT22;5271;44.422;26.092;2023-04-01T03:33:49;13.50;83.30
10447;DHT22;5271;44.422;26.092;2023-04-01T03:36:15;13.50;83.00
10447;DHT22;5271;44.422;26.092;2023-04-01T03:38:43;13.50;83.40
10447;DHT22;5271;44.422;26.092;2023-04-01T03:41:12;13.60;83.00
10447;DHT22;5271;44.422;26.092;2023-04-01T03:43:39;13.60;82.80
10447;DHT22;5271;44.422;26.092;2023-04-01T03:46:06;13.60;82.60
10447;DHT22;5271;44.422;26.092;2023-04-01T03:48:33;13.50;82.80
10447;DHT22;5271;44.422;26.092;2023-04-01T03:51:01;13.40;82.90
10447;DHT22;5271;44.422;26.092;2023-04-01T03:53:32;13.40;82.90
10447;DHT22;5271;44.422;26.092;2023-04-01T03:56:03;13.50;82.40
10447;DHT22;5271;44.422;26.092;2023-04-01T03:58:30;13.40;82.50
10447;DHT22;5271;44.422;26.092;2023-04-01T04:00:57;13.40;83.20
10447;DHT22;5271;44.422;26.092;2023-04-01T04:03:24;13.30;82.70
10447;DHT22;5271;44.422;26.092;2023-04-01T04:05:51;13.40;82.10
10447;DHT22;5271;44.422;26.092;2023-04-01T04:08:19;13.40;83.00
10447;DHT22;5271;44.422;26.092;2023-04-01T04:10:47;13.30;82.10
10447;DHT22;5271;44.422;26.092;2023-04-01T04:13:13;13.40;82.20
10447;DHT22;5271;44.422;26.092;2023-04-01T04:15:40;13.50;82.50
10447;DHT22;5271;44.422;26.092;2023-04-01T04:18:07;13.50;82.40
10447;DHT22;5271;44.422;26.092;2023-04-01T04:20:34;13.60;82.00
10447;DHT22;5271;44.422;26.092;2023-04-01T04:23:01;13.60;82.50
10447;DHT22;5271;44.422;26.092;2023-04-01T04:25:29;13.50;83.10
10447;DHT22;5271;44.422;26.092;2023-04-01T04:27:56;13.40;84.30
10447;DHT22;5271;44.422;26.092;2023-04-01T04:30:22;13.30;84.50
10447;DHT22;5271;44.422;26.092;2023-04-01T04:32:49;13.30;85.60
10447;DHT22;5271;44.422;26.092;2023-04-01T04:35:16;13.30;85.40
10447;DHT22;5271;44.422;26.092;2023-04-01T04:37:43;13.30;86.10
10447;DHT22;5271;44.422;26.092;2023-04-01T04:40:10;13.30;86.50
10447;DHT22;5271;44.422;26.092;2023-04-01T04:42:38;13.30;86.00
10447;DHT22;5271;44.422;26.092;2023-04-01T04:45:06;13.20;85.70
10447;DHT22;5271;44.422;26.092;2023-04-01T04:47:32;13.20;85.70
10447;DHT22;5271;44.422;26.092;2023-04-01T04:49:59;13.10;85.50
10447;DHT22;5271;44.422;26.092;2023-04-01T04:52:26;13.10;85.60
10447;DHT22;5271;44.422;26.092;2023-04-01T04:54:53;13.00;85.50
10447;DHT22;5271;44.422;26.092;2023-04-01T04:57:20;13.00;85.90
10447;DHT22;5271;44.422;26.092;2023-04-01T04:59:48;13.00;86.10
10447;DHT22;5271;44.422;26.092;2023-04-01T05:02:15;13.00;86.30
10447;DHT22;5271;44.422;26.092;2023-04-01T05:04:41;13.00;86.30
10447;DHT22;5271;44.422;26.092;2023-04-01T05:07:08;13.00;86.60
10447;DHT22;5271;44.422;26.092;2023-04-01T05:09:35;13.10;86.80
10447;DHT22;5271;44.422;26.092;2023-04-01T05:12:02;13.10;86.50
10447;DHT22;5271;44.422;26.092;2023-04-01T05:14:29;13.10;86.10
10447;DHT22;5271;44.422;26.092;2023-04-01T05:16:57;13.10;86.00
10447;DHT22;5271;44.422;26.092;2023-04-01T05:19:24;13.10;85.60
10447;DHT22;5271;44.422;26.092;2023-04-01T05:21:51;13.20;85.10
10447;DHT22;5271;44.422;26.092;2023-04-01T05:24:18;13.20;85.20
10447;DHT22;5271;44.422;26.092;2023-04-01T05:26:45;13.20;84.80
10447;DHT22;5271;44.422;26.092;2023-04-01T05:29:11;13.10;84.80
10447;DHT22;5271;44.422;26.092;2023-04-01T05:31:38;13.10;85.10
10447;DHT22;5271;44.422;26.092;2023-04-01T05:34:06;13.10;85.20
10447;DHT22;5271;44.422;26.092;2023-04-01T05:36:33;13.10;84.90
10447;DHT22;5271;44.422;26.092;2023-04-01T05:39:01;13.00;85.00
10447;DHT22;5271;44.422;26.092;2023-04-01T05:41:27;13.00;84.90
10447;DHT22;5271;44.422;26.092;2023-04-01T05:43:55;12.90;84.80
10447;DHT22;5271;44.422;26.092;2023-04-01T05:46:21;12.90;85.30
10447;DHT22;5271;44.422;26.092;2023-04-01T05:48:48;12.90;85.30
10447;DHT22;5271;44.422;26.092;2023-04-01T05:51:16;13.00;85.60
10447;DHT22;5271;44.422;26.092;2023-04-01T05:53:43;13.10;84.60
10447;DHT22;5271;44.422;26.092;2023-04-01T05:56:10;13.20;84.60
10447;DHT22;5271;44.422;26.092;2023-04-01T05:58:38;13.20;84.20
10447;DHT22;5271;44.422;26.092;2023-04-01T06:01:07;13.20;84.00
10447;DHT22;5271;44.422;26.092;2023-04-01T06:03:34;13.20;84.00
10447;DHT22;5271;44.422;26.092;2023-04-01T06:06:02;13.10;84.10
10447;DHT22;5271;44.422;26.092;2023-04-01T06:08:31;13.20;84.20
10447;DHT22;5271;44.422;26.092;2023-04-01T06:11:07;13.20;83.60
10447;DHT22;5271;44.422;26.092;2023-04-01T06:14:00;13.20;83.80
10447;DHT22;5271;44.422;26.092;2023-04-01T06:16:45;13.20;83.30
10447;DHT22;5271;44.422;26.092;2023-04-01T06:19:24;13.20;83.30
10447;DHT22;5271;44.422;26.092;2023-04-01T06:22:13;13.30;83.20
10447;DHT22;5271;44.422;26.092;2023-04-01T06:25:10;13.30;82.80
10447;DHT22;5271;44.422;26.092;2023-04-01T06:27:49;13.40;83.10
10447;DHT22;5271;44.422;26.092;2023-04-01T06:30:33;13.40;83.20
10447;DHT22;5271;44.422;26.092;2023-04-01T06:33:13;13.50;83.00
10447;DHT22;5271;44.422;26.092;2023-04-01T06:38:59;13.50;83.20
10447;DHT22;5271;44.422;26.092;2023-04-01T06:44:36;13.40;84.40
10447;DHT22;5271;44.422;26.092;2023-04-01T06:47:17;13.40;84.50
10447;DHT22;5271;44.422;26.092;2023-04-01T06:49:52;13.40;84.10
10447;DHT22;5271;44.422;26.092;2023-04-01T06:52:26;13.40;84.10
10447;DHT22;5271;44.422;26.092;2023-04-01T06:55:02;13.40;84.40
10447;DHT22;5271;44.422;26.092;2023-04-01T06:57:42;13.40;84.40
10447;DHT22;5271;44.422;26.092;2023-04-01T07:00:13;13.60;84.50
10447;DHT22;5271;44.422;26.092;2023-04-01T07:02:45;13.60;83.70
10447;DHT22;5271;44.422;26.092;2023-04-01T07:05:19;13.70;83.30
10447;DHT22;5271;44.422;26.092;2023-04-01T07:07:48;13.80;82.90
10447;DHT22;5271;44.422;26.092;2023-04-01T07:10:19;13.90;82.90
10447;DHT22;5271;44.422;26.092;2023-04-01T07:12:51;13.80;83.00
10447;DHT22;5271;44.422;26.092;2023-04-01T07:15:22;13.70;83.00
10447;DHT22;5271;44.422;26.092;2023-04-01T07:17:54;13.70;83.60
10447;DHT22;5271;44.422;26.092;2023-04-01T07:20:25;13.70;84.00
10447;DHT22;5271;44.422;26.092;2023-04-01T07:22:54;13.80;83.90
10447;DHT22;5271;44.422;26.092;2023-04-01T07:25:24;14.00;82.90
10447;DHT22;5271;44.422;26.092;2023-04-01T07:27:59;14.10;82.70
10447;DHT22;5271;44.422;26.092;2023-04-01T07:36:12;14.00;82.30
10447;DHT22;5271;44.422;26.092;2023-04-01T07:38:49;14.00;82.20
10447;DHT22;5271;44.422;26.092;2023-04-01T07:41:27;14.00;81.30
10447;DHT22;5271;44.422;26.092;2023-04-01T07:44:05;13.80;82.10
10447;DHT22;5271;44.422;26.092;2023-04-01T07:49:30;13.70;82.50
10447;DHT22;5271;44.422;26.092;2023-04-01T07:52:06;13.70;82.60
10447;DHT22;5271;44.422;26.092;2023-04-01T07:54:40;13.70;82.80
10447;DHT22;5271;44.422;26.092;2023-04-01T07:57:12;13.80;82.60
10447;DHT22;5271;44.422;26.092;2023-04-01T07:59:51;13.90;83.10
10447;DHT22;5271;44.422;26.092;2023-04-01T08:02:28;14.10;83.10
10447;DHT22;5271;44.422;26.092;2023-04-01T08:05:04;14.50;82.30
10447;DHT22;5271;44.422;26.092;2023-04-01T08:07:38;14.70;81.20
10447;DHT22;5271;44.422;26.092;2023-04-01T08:10:12;14.70;81.00
10447;DHT22;5271;44.422;26.092;2023-04-01T08:12:48;14.60;81.90
10447;DHT22;5271;44.422;26.092;2023-04-01T08:15:25;14.50;82.70
10447;DHT22;5271;44.422;26.092;2023-04-01T08:18:04;14.40;84.20
10447;DHT22;5271;44.422;26.092;2023-04-01T08:20:37;14.30;85.60
10447;DHT22;5271;44.422;26.092;2023-04-01T08:23:10;14.20;85.40
10447;DHT22;5271;44.422;26.092;2023-04-01T08:25:40;14.20;85.30
10447;DHT22;5271;44.422;26.092;2023-04-01T08:28:16;14.20;85.40
10447;DHT22;5271;44.422;26.092;2023-04-01T08:30:48;14.20;86.00
10447;DHT22;5271;44.422;26.092;2023-04-01T08:33:21;14.30;85.30
10447;DHT22;5271;44.422;26.092;2023-04-01T08:35:54;14.40;85.50
10447;DHT22;5271;44.422;26.092;2023-04-01T08:38:26;14.30;86.10
10447;DHT22;5271;44.422;26.092;2023-04-01T08:41:01;14.20;85.70
10447;DHT22;5271;44.422;26.092;2023-04-01T08:44:04;14.20;84.70
10447;DHT22;5271;44.422;26.092;2023-04-01T08:46:59;14.60;85.20
10447;DHT22;5271;44.422;26.092;2023-04-01T08:52:34;15.50;83.30
10447;DHT22;5271;44.422;26.092;2023-04-01T08:55:19;15.70;81.40
10447;DHT22;5271;44.422;26.092;2023-04-01T08:58:01;15.90;81.20
10447;DHT22;5271;44.422;26.092;2023-04-01T09:00:33;15.80;81.60
10447;DHT22;5271;44.422;26.092;2023-04-01T09:03:21;15.80;81.20
10447;DHT22;5271;44.422;26.092;2023-04-01T09:06:22;15.90;81.70
10447;DHT22;5271;44.422;26.092;2023-04-01T09:09:05;15.90;80.80
10447;DHT22;5271;44.422;26.092;2023-04-01T09:11:44;16.00;81.30
10447;DHT22;5271;44.422;26.092;2023-04-01T09:14:34;16.00;80.60
10447;DHT22;5271;44.422;26.092;2023-04-01T09:17:27;15.90;80.30
10447;DHT22;5271;44.422;26.092;2023-04-01T09:20:08;15.70;81.90
10447;DHT22;5271;44.422;26.092;2023-04-01T09:22:55;15.60;82.60
10447;DHT22;5271;44.422;26.092;2023-04-01T09:25:49;15.50;82.00
10447;DHT22;5271;44.422;26.092;2023-04-01T09:28:19;15.50;81.90
10447;DHT22;5271;44.422;26.092;2023-04-01T09:31:09;15.60;80.80
10447;DHT22;5271;44.422;26.092;2023-04-01T09:33:56;15.80;80.20
10447;DHT22;5271;44.422;26.092;2023-04-01T09:36:44;15.80;80.10
10447;DHT22;5271;44.422;26.092;2023-04-01T09:39:25;15.60;80.00
10447;DHT22;5271;44.422;26.092;2023-04-01T09:44:48;15.40;80.80
10447;DHT22;5271;44.422;26.092;2023-04-01T09:47:41;15.40;81.80
10447;DHT22;5271;44.422;26.092;2023-04-01T09:50:32;15.40;82.80
10447;DHT22;5271;44.422;26.092;2023-04-01T09:53:11;15.40;82.10
10447;DHT22;5271;44.422;26.092;2023-04-01T09:56:19;15.50;81.80
10447;DHT22;5271;44.422;26.092;2023-04-01T09:59:08;15.60;80.80
10447;DHT22;5271;44.422;26.092;2023-04-01T10:02:16;15.60;81.60
10447;DHT22;5271;44.422;26.092;2023-04-01T10:05:30;15.50;81.90
10447;DHT22;5271;44.422;26.092;2023-04-01T10:14:25;16.00;82.20
10447;DHT22;5271;44.422;26.092;2023-04-01T10:17:37;16.40;82.50
10447;DHT22;5271;44.422;26.092;2023-04-01T10:20:22;16.80;78.80
10447;DHT22;5271;44.422;26.092;2023-04-01T10:26:35;17.20;77.90
10447;DHT22;5271;44.422;26.092;2023-04-01T10:32:23;17.60;77.50
10447;DHT22;5271;44.422;26.092;2023-04-01T10:35:20;17.70;76.50
10447;DHT22;5271;44.422;26.092;2023-04-01T10:38:22;17.90;76.10
10447;DHT22;5271;44.422;26.092;2023-04-01T10:44:18;17.50;74.80
10447;DHT22;5271;44.422;26.092;2023-04-01T10:47:19;17.10;76.00
10447;DHT22;5271;44.422;26.092;2023-04-01T10:50:22;16.90;77.90
10447;DHT22;5271;44.422;26.092;2023-04-01T11:09:05;16.60;76.40
10447;DHT22;5271;44.422;26.092;2023-04-01T11:11:57;16.50;77.80
10447;DHT22;5271;44.422;26.092;2023-04-01T11:23:54;16.70;77.80
10447;DHT22;5271;44.422;26.092;2023-04-01T11:26:36;16.80;76.00
10447;DHT22;5271;44.422;26.092;2023-04-01T11:29:33;17.00;75.80
10447;DHT22;5271;44.422;26.092;2023-04-01T11:32:13;17.10;75.40
10447;DHT22;5271;44.422;26.092;2023-04-01T11:34:59;17.20;75.60
10447;DHT22;5271;44.422;26.092;2023-04-01T11:37:36;17.10;74.70
10447;DHT22;5271;44.422;26.092;2023-04-01T11:40:14;17.10;74.90
10447;DHT22;5271;44.422;26.092;2023-04-01T11:42:55;17.20;74.50
10447;DHT22;5271;44.422;26.092;2023-04-01T11:45:35;17.20;75.10
10447;DHT22;5271;44.422;26.092;2023-04-01T11:48:23;17.20;74.90
10447;DHT22;5271;44.422;26.092;2023-04-01T11:51:10;17.10;73.30
10447;DHT22;5271;44.422;26.092;2023-04-01T11:53:47;17.00;74.20
10447;DHT22;5271;44.422;26.092;2023-04-01T11:56:30;16.80;74.00
10447;DHT22;5271;44.422;26.092;2023-04-01T11:59:37;16.70;74.30
10447;DHT22;5271;44.422;26.092;2023-04-01T12:02:12;16.80;74.60
10447;DHT22;5271;44.422;26.092;2023-04-01T12:05:19;16.90;75.60
10447;DHT22;5271;44.422;26.092;2023-04-01T12:08:07;17.00;73.90
10447;DHT22;5271;44.422;26.092;2023-04-01T12:10:40;17.10;71.30
10447;DHT22;5271;44.422;26.092;2023-04-01T12:13:24;17.00;70.90
10447;DHT22;5271;44.422;26.092;2023-04-01T12:16:07;16.90;71.10
10447;DHT22;5271;44.422;26.092;2023-04-01T12:18:38;16.70;70.70
10447;DHT22;5271;44.422;26.092;2023-04-01T12:21:17;16.70;71.90
10447;DHT22;5271;44.422;26.092;2023-04-01T12:24:25;16.70;72.70
10447;DHT22;5271;44.422;26.092;2023-04-01T12:27:07;16.90;72.10
10447;DHT22;5271;44.422;26.092;2023-04-01T12:29:58;17.10;71.90
10447;DHT22;5271;44.422;26.092;2023-04-01T12:32:37;17.20;70.40
10447;DHT22;5271;44.422;26.092;2023-04-01T12:35:21;17.30;69.40
10447;DHT22;5271;44.422;26.092;2023-04-01T12:38:09;17.30;70.10
10447;DHT22;5271;44.422;26.092;2023-04-01T12:40:51;17.30;70.40
10447;DHT22;5271;44.422;26.092;2023-04-01T12:46:40;17.20;69.90
10447;DHT22;5271;44.422;26.092;2023-04-01T12:49:37;17.20;70.00
10447;DHT22;5271;44.422;26.092;2023-04-01T12:52:12;17.30;69.90
10447;DHT22;5271;44.422;26.092;2023-04-01T12:55:08;17.40;70.30
10447;DHT22;5271;44.422;26.092;2023-04-01T13:04:09;17.60;70.00
10447;DHT22;5271;44.422;26.092;2023-04-01T13:07:10;17.50;70.80
10447;DHT22;5271;44.422;26.092;2023-04-01T13:09:47;17.40;71.70
10447;DHT22;5271;44.422;26.092;2023-04-01T13:12:42;17.30;71.50
10447;DHT22;5271;44.422;26.092;2023-04-01T13:15:23;17.20;71.90
10447;DHT22;5271;44.422;26.092;2023-04-01T13:17:53;17.30;72.70
10447;DHT22;5271;44.422;26.092;2023-04-01T13:20:34;17.20;72.40
10447;DHT22;5271;44.422;26.092;2023-04-01T13:23:11;17.10;72.70
10447;DHT22;5271;44.422;26.092;2023-04-01T13:25:46;17.00;73.20
10447;DHT22;5271;44.422;26.092;2023-04-01T13:28:18;16.80;74.00
10447;DHT22;5271;44.422;26.092;2023-04-01T13:30:52;16.60;74.60
10447;DHT22;5271;44.422;26.092;2023-04-01T13:33:27;16.50;75.00
10447;DHT22;5271;44.422;26.092;2023-04-01T13:36:08;16.20;76.30
10447;DHT22;5271;44.422;26.092;2023-04-01T13:38:52;16.00;79.10
10447;DHT22;5271;44.422;26.092;2023-04-01T13:41:36;15.80;80.60
10447;DHT22;5271;44.422;26.092;2023-04-01T13:44:11;15.50;82.40
10447;DHT22;5271;44.422;26.092;2023-04-01T13:47:08;15.50;83.10
10447;DHT22;5271;44.422;26.092;2023-04-01T13:49:53;15.40;82.00
10447;DHT22;5271;44.422;26.092;2023-04-01T13:52:44;15.40;83.40
10447;DHT22;5271;44.422;26.092;2023-04-01T13:55:50;15.50;84.90
10447;DHT22;5271;44.422;26.092;2023-04-01T13:58:53;15.50;85.00
10447;DHT22;5271;44.422;26.092;2023-04-01T14:01:29;15.40;85.60
10447;DHT22;5271;44.422;26.092;2023-04-01T14:07:08;15.00;88.30
10447;DHT22;5271;44.422;26.092;2023-04-01T14:09:50;14.50;89.50
10447;DHT22;5271;44.422;26.092;2023-04-01T14:12:29;14.00;90.00
10447;DHT22;5271;44.422;26.092;2023-04-01T14:15:14;13.50;91.60
10447;DHT22;5271;44.422;26.092;2023-04-01T14:17:54;13.10;92.70
10447;DHT22;5271;44.422;26.092;2023-04-01T14:20:32;12.90;93.30
10447;DHT22;5271;44.422;26.092;2023-04-01T14:26:07;12.80;94.80
10447;DHT22;5271;44.422;26.092;2023-04-01T14:28:45;12.90;94.70
10447;DHT22;5271;44.422;26.092;2023-04-01T14:31:34;13.00;94.30
10447;DHT22;5271;44.422;26.092;2023-04-01T14:34:15;13.10;95.00
10447;DHT22;5271;44.422;26.092;2023-04-01T14:37:07;13.20;94.40
10447;DHT22;5271;44.422;26.092;2023-04-01T17:01:21;12.80;94.40
10447;DHT22;5271;44.422;26.092;2023-04-01T17:03:52;12.80;93.30
10447;DHT22;5271;44.422;26.092;2023-04-01T17:11:42;13.00;94.20
10447;DHT22;5271;44.422;26.092;2023-04-01T17:14:17;13.10;94.50
10447;DHT22;5271;44.422;26.092;2023-04-01T17:17:15;13.20;94.40
10447;DHT22;5271;44.422;26.092;2023-04-01T17:19:53;13.30;94.30
10447;DHT22;5271;44.422;26.092;2023-04-01T17:22:32;13.40;94.20
10447;DHT22;5271;44.422;26.092;2023-04-01T17:25:24;13.60;94.10
10447;DHT22;5271;44.422;26.092;2023-04-01T17:27:55;13.70;94.00
10447;DHT22;5271;44.422;26.092;2023-04-01T17:30:28;13.80;94.00
10447;DHT22;5271;44.422;26.092;2023-04-01T17:33:25;13.90;93.90
10447;DHT22;5271;44.422;26.092;2023-04-01T17:35:58;14.00;93.80
10447;DHT22;5271;44.422;26.092;2023-04-01T17:38:39;14.00;93.80
10447;DHT22;5271;44.422;26.092;2023-04-01T17:41:15;14.20;93.80
10447;DHT22;5271;44.422;26.092;2023-04-01T17:43:50;14.20;93.40
10447;DHT22;5271;44.422;26.092;2023-04-01T17:46:31;14.20;93.30
10447;DHT22;5271;44.422;26.092;2023-04-01T17:49:14;14.30;93.20
10447;DHT22;5271;44.422;26.092;2023-04-01T17:51:53;14.30;93.10
10447;DHT22;5271;44.422;26.092;2023-04-01T17:54:28;14.40;93.00
10447;DHT22;5271;44.422;26.092;2023-04-01T17:57:19;14.40;92.90
10447;DHT22;5271;44.422;26.092;2023-04-01T17:59:54;14.40;92.80
10447;DHT22;5271;44.422;26.092;2023-04-01T18:02:29;14.40;92.80
10447;DHT22;5271;44.422;26.092;2023-04-01T18:05:29;14.40;92.80
10447;DHT22;5271;44.422;26.092;2023-04-01T18:08:10;14.40;92.70
10447;DHT22;5271;44.422;26.092;2023-04-01T18:10:47;14.40;92.70
10447;DHT22;5271;44.422;26.092;2023-04-01T18:13:40;14.50;92.60
10447;DHT22;5271;44.422;26.092;2023-04-01T18:16:32;14.50;92.50
10447;DHT22;5271;44.422;26.092;2023-04-01T18:19:12;14.50;92.40
10447;DHT22;5271;44.422;26.092;2023-04-01T18:21:46;14.50;92.30
10447;DHT22;5271;44.422;26.092;2023-04-01T18:24:23;14.50;92.20
10447;DHT22;5271;44.422;26.092;2023-04-01T18:27:02;14.50;92.20
10447;DHT22;5271;44.422;26.092;2023-04-01T18:29:35;14.50;92.10
10447;DHT22;5271;44.422;26.092;2023-04-01T18:32:13;14.50;92.00
10447;DHT22;5271;44.422;26.092;2023-04-01T18:34:51;14.50;92.00
10447;DHT22;5271;44.422;26.092;2023-04-01T18:37:27;14.50;91.90
10447;DHT22;5271;44.422;26.092;2023-04-01T18:40:00;14.50;91.90
10447;DHT22;5271;44.422;26.092;2023-04-01T18:42:38;14.50;91.90
10447;DHT22;5271;44.422;26.092;2023-04-01T18:45:17;14.50;92.00
10447;DHT22;5271;44.422;26.092;2023-04-01T18:47:54;14.60;92.20
10447;DHT22;5271;44.422;26.092;2023-04-01T18:50:26;14.60;92.30
10447;DHT22;5271;44.422;26.092;2023-04-01T18:52:58;14.60;92.60
10447;DHT22;5271;44.422;26.092;2023-04-01T18:55:34;14.70;92.50
10447;DHT22;5271;44.422;26.092;2023-04-01T18:58:24;14.60;92.30
10447;DHT22;5271;44.422;26.092;2023-04-01T19:03:52;14.60;92.30
10447;DHT22;5271;44.422;26.092;2023-04-01T19:06:25;14.60;92.20
10447;DHT22;5271;44.422;26.092;2023-04-01T19:08:53;14.60;92.30
10447;DHT22;5271;44.422;26.092;2023-04-01T19:11:30;14.60;92.30
10447;DHT22;5271;44.422;26.092;2023-04-01T19:14:12;14.60;92.10
10447;DHT22;5271;44.422;26.092;2023-04-01T19:16:49;14.70;92.20
10447;DHT22;5271;44.422;26.092;2023-04-01T19:19:33;14.60;92.20
10447;DHT22;5271;44.422;26.092;2023-04-01T19:22:14;14.70;92.20
10447;DHT22;5271;44.422;26.092;2023-04-01T19:25:00;14.70;92.00
10447;DHT22;5271;44.422;26.092;2023-04-01T19:27:34;14.70;92.10
10447;DHT22;5271;44.422;26.092;2023-04-01T19:30:14;14.70;92.20
10447;DHT22;5271;44.422;26.092;2023-04-01T19:32:49;14.70;92.10
10447;DHT22;5271;44.422;26.092;2023-04-01T19:35:26;14.70;92.20
10447;DHT22;5271;44.422;26.092;2023-04-01T19:37:57;14.70;92.20
10447;DHT22;5271;44.422;26.092;2023-04-01T19:40:37;14.80;92.20
10447;DHT22;5271;44.422;26.092;2023-04-01T19:43:17;14.80;92.20
10447;DHT22;5271;44.422;26.092;2023-04-01T19:45:51;14.80;92.20
10447;DHT22;5271;44.422;26.092;2023-04-01T19:48:37;14.80;92.30
10447;DHT22;5271;44.422;26.092;2023-04-01T19:51:08;14.80;92.10
10447;DHT22;5271;44.422;26.092;2023-04-01T19:53:40;14.70;92.20
10447;DHT22;5271;44.422;26.092;2023-04-01T19:56:16;14.70;92.20
10447;DHT22;5271;44.422;26.092;2023-04-01T19:58:48;14.70;92.20
10447;DHT22;5271;44.422;26.092;2023-04-01T20:01:22;14.70;92.20
10447;DHT22;5271;44.422;26.092;2023-04-01T20:03:55;14.70;92.20
10447;DHT22;5271;44.422;26.092;2023-04-01T20:06:29;14.70;92.20
10447;DHT22;5271;44.422;26.092;2023-04-01T20:09:11;14.70;92.30
10447;DHT22;5271;44.422;26.092;2023-04-01T20:11:55;14.70;92.30
10447;DHT22;5271;44.422;26.092;2023-04-01T20:14:29;14.70;92.30